sensor_id;sensor_type;location;lat;lon;timestamp;temperature;humidity
54680;DHT22;40578;53.178;5.846;2024-03-17T00:02:22;3.60;99.90
54680;DHT22;40578;53.178;5.846;2024-03-17T00:04:48;3.60;99.90
54680;DHT22;40578;53.178;5.846;2024-03-17T00:07:14;3.50;99.90
54680;DHT22;40578;53.178;5.846;2024-03-17T00:09:40;3.50;99.90
54680;DHT22;40578;53.178;5.846;2024-03-17T00:12:06;3.50;99.90
54680;DHT22;40578;53.178;5.846;2024-03-17T00:14:33;3.40;99.90
54680;DHT22;40578;53.178;5.846;2024-03-17T00:17:00;3.40;99.90
54680;DHT22;40578;53.178;5.846;2024-03-17T00:19:26;3.40;99.90
54680;DHT22;40578;53.178;5.846;2024-03-17T00:21:51;3.40;99.90
54680;DHT22;40578;53.178;5.846;2024-03-17T00:24:18;3.40;99.90
54680;DHT22;40578;53.178;5.846;2024-03-17T00:26:43;3.30;99.90
54680;DHT22;40578;53.178;5.846;2024-03-17T00:29:10;3.20;99.90
54680;DHT22;40578;53.178;5.846;2024-03-17T00:31:35;3.20;99.90
54680;DHT22;40578;53.178;5.846;2024-03-17T00:34:02;3.20;99.90
54680;DHT22;40578;53.178;5.846;2024-03-17T00:36:28;3.20;99.90
54680;DHT22;40578;53.178;5.846;2024-03-17T00:38:54;3.20;99.90
54680;DHT22;40578;53.178;5.846;2024-03-17T00:41:20;3.20;99.90
54680;DHT22;40578;53.178;5.846;2024-03-17T00:43:47;3.20;99.90
54680;DHT22;40578;53.178;5.846;2024-03-17T00:46:12;3.10;99.90
54680;DHT22;40578;53.178;5.846;2024-03-17T00:48:38;3.20;99.90
54680;DHT22;40578;53.178;5.846;2024-03-17T00:51:04;3.30;99.90
54680;DHT22;40578;53.178;5.846;2024-03-17T00:53:30;3.40;99.90
54680;DHT22;40578;53.178;5.846;2024-03-17T00:55:56;3.40;99.90
54680;DHT22;40578;53.178;5.846;2024-03-17T00:58:26;3.30;99.90
54680;DHT22;40578;53.178;5.846;2024-03-17T01:00:52;3.20;99.90
54680;DHT22;40578;53.178;5.846;2024-03-17T01:03:18;3.20;99.90
54680;DHT22;40578;53.178;5.846;2024-03-17T01:05:44;3.20;99.90
54680;DHT22;40578;53.178;5.846;2024-03-17T01:08:13;3.20;99.90
54680;DHT22;40578;53.178;5.846;2024-03-17T01:10:39;3.10;99.90
54680;DHT22;40578;53.178;5.846;2024-03-17T01:13:08;3.00;99.90
54680;DHT22;40578;53.178;5.846;2024-03-17T01:15:36;3.00;99.90
54680;DHT22;40578;53.178;5.846;2024-03-17T01:18:03;3.00;99.90
54680;DHT22;40578;53.178;5.846;2024-03-17T01:20:30;2.90;99.90
54680;DHT22;40578;53.178;5.846;2024-03-17T01:22:55;3.00;99.90
54680;DHT22;40578;53.178;5.846;2024-03-17T01:25:21;3.00;99.90
54680;DHT22;40578;53.178;5.846;2024-03-17T01:27:47;3.00;99.90
54680;DHT22;40578;53.178;5.846;2024-03-17T01:30:12;3.00;99.90
54680;DHT22;40578;53.178;5.846;2024-03-17T01:32:38;3.00;99.90
54680;DHT22;40578;53.178;5.846;2024-03-17T01:35:04;2.90;99.90
54680;DHT22;40578;53.178;5.846;2024-03-17T01:37:31;3.00;99.90
54680;DHT22;40578;53.178;5.846;2024-03-17T01:39:58;2.90;99.90
54680;DHT22;40578;53.178;5.846;2024-03-17T01:42:24;2.90;99.90
54680;DHT22;40578;53.178;5.846;2024-03-17T01:44:49;2.80;99.90
54680;DHT22;40578;53.178;5.846;2024-03-17T01:47:17;2.80;99.90
54680;DHT22;40578;53.178;5.846;2024-03-17T01:49:47;2.80;99.90
54680;DHT22;40578;53.178;5.846;2024-03-17T01:52:17;2.80;99.90
54680;DHT22;40578;53.178;5.846;2024-03-17T01:54:44;2.80;99.90
54680;DHT22;40578;53.178;5.846;2024-03-17T01:57:11;2.70;99.90
54680;DHT22;40578;53.178;5.846;2024-03-17T01:59:37;2.60;99.90
54680;DHT22;40578;53.178;5.846;2024-03-17T02:02:03;2.60;99.90
54680;DHT22;40578;53.178;5.846;2024-03-17T02:04:29;2.60;99.90
54680;DHT22;40578;53.178;5.846;2024-03-17T02:06:55;2.60;99.90
54680;DHT22;40578;53.178;5.846;2024-03-17T02:09:20;2.70;99.90
54680;DHT22;40578;53.178;5.846;2024-03-17T02:11:47;2.80;99.90
54680;DHT22;40578;53.178;5.846;2024-03-17T02:14:13;2.80;99.90
54680;DHT22;40578;53.178;5.846;2024-03-17T02:16:40;2.80;99.90
54680;DHT22;40578;53.178;5.846;2024-03-17T02:19:06;3.00;99.90
54680;DHT22;40578;53.178;5.846;2024-03-17T02:21:31;3.10;99.90
54680;DHT22;40578;53.178;5.846;2024-03-17T02:23:57;3.20;99.90
54680;DHT22;40578;53.178;5.846;2024-03-17T02:26:25;3.20;99.90
54680;DHT22;40578;53.178;5.846;2024-03-17T02:28:51;3.30;99.90
54680;DHT22;40578;53.178;5.846;2024-03-17T02:31:17;3.40;99.90
54680;DHT22;40578;53.178;5.846;2024-03-17T02:33:44;3.40;99.90
54680;DHT22;40578;53.178;5.846;2024-03-17T02:36:10;3.50;99.90
54680;DHT22;40578;53.178;5.846;2024-03-17T02:38:38;3.80;99.90
54680;DHT22;40578;53.178;5.846;2024-03-17T02:41:22;3.60;99.90
54680;DHT22;40578;53.178;5.846;2024-03-17T02:43:48;3.60;99.90
54680;DHT22;40578;53.178;5.846;2024-03-17T02:46:15;3.70;99.90
54680;DHT22;40578;53.178;5.846;2024-03-17T02:48:42;3.70;99.90
54680;DHT22;40578;53.178;5.846;2024-03-17T02:51:14;3.80;99.90
54680;DHT22;40578;53.178;5.846;2024-03-17T02:53:44;3.80;99.90
54680;DHT22;40578;53.178;5.846;2024-03-17T02:56:13;3.80;99.90
54680;DHT22;40578;53.178;5.846;2024-03-17T02:58:40;3.90;99.90
54680;DHT22;40578;53.178;5.846;2024-03-17T03:01:07;3.90;99.90
54680;DHT22;40578;53.178;5.846;2024-03-17T03:03:33;3.90;99.90
54680;DHT22;40578;53.178;5.846;2024-03-17T03:05:59;3.90;99.90
54680;DHT22;40578;53.178;5.846;2024-03-17T03:08:29;4.00;99.90
54680;DHT22;40578;53.178;5.846;2024-03-17T03:10:55;4.10;99.90
54680;DHT22;40578;53.178;5.846;2024-03-17T03:13:20;4.10;99.90
54680;DHT22;40578;53.178;5.846;2024-03-17T03:15:48;4.10;99.90
54680;DHT22;40578;53.178;5.846;2024-03-17T03:18:14;4.10;99.90
54680;DHT22;40578;53.178;5.846;2024-03-17T03:20:40;4.20;99.90
54680;DHT22;40578;53.178;5.846;2024-03-17T03:23:06;4.20;99.90
54680;DHT22;40578;53.178;5.846;2024-03-17T03:25:32;4.20;99.90
54680;DHT22;40578;53.178;5.846;2024-03-17T03:27:58;4.20;99.90
54680;DHT22;40578;53.178;5.846;2024-03-17T03:30:24;4.30;99.90
54680;DHT22;40578;53.178;5.846;2024-03-17T03:32:49;4.20;99.90
54680;DHT22;40578;53.178;5.846;2024-03-17T03:35:15;4.30;99.90
54680;DHT22;40578;53.178;5.846;2024-03-17T03:37:41;4.20;99.90
54680;DHT22;40578;53.178;5.846;2024-03-17T03:40:08;4.30;99.90
54680;DHT22;40578;53.178;5.846;2024-03-17T03:42:46;4.30;99.90
54680;DHT22;40578;53.178;5.846;2024-03-17T03:45:12;4.30;99.90
54680;DHT22;40578;53.178;5.846;2024-03-17T03:47:42;4.30;99.90
54680;DHT22;40578;53.178;5.846;2024-03-17T03:50:10;4.40;99.90
54680;DHT22;40578;53.178;5.846;2024-03-17T03:52:37;4.40;99.90
54680;DHT22;40578;53.178;5.846;2024-03-17T03:55:03;4.40;99.90
54680;DHT22;40578;53.178;5.846;2024-03-17T03:57:30;4.50;99.90
54680;DHT22;40578;53.178;5.846;2024-03-17T03:59:59;4.40;99.90
54680;DHT22;40578;53.178;5.846;2024-03-17T04:02:25;4.50;99.90
54680;DHT22;40578;53.178;5.846;2024-03-17T04:04:56;4.50;99.90
54680;DHT22;40578;53.178;5.846;2024-03-17T04:07:22;4.80;99.90
54680;DHT22;40578;53.178;5.846;2024-03-17T04:09:48;4.60;99.90
54680;DHT22;40578;53.178;5.846;2024-03-17T04:12:13;4.70;99.90
54680;DHT22;40578;53.178;5.846;2024-03-17T04:14:39;4.70;99.90
54680;DHT22;40578;53.178;5.846;2024-03-17T04:17:05;4.70;99.90
54680;DHT22;40578;53.178;5.846;2024-03-17T04:19:31;4.70;99.90
54680;DHT22;40578;53.178;5.846;2024-03-17T04:21:57;4.80;99.90
54680;DHT22;40578;53.178;5.846;2024-03-17T04:24:22;4.80;99.90
54680;DHT22;40578;53.178;5.846;2024-03-17T04:26:48;4.80;99.90
54680;DHT22;40578;53.178;5.846;2024-03-17T04:29:13;4.70;99.90
54680;DHT22;40578;53.178;5.846;2024-03-17T04:31:39;4.90;99.90
54680;DHT22;40578;53.178;5.846;2024-03-17T04:34:05;4.80;99.90
54680;DHT22;40578;53.178;5.846;2024-03-17T04:36:31;4.90;99.90
54680;DHT22;40578;53.178;5.846;2024-03-17T04:38:57;4.90;99.90
54680;DHT22;40578;53.178;5.846;2024-03-17T04:41:24;4.90;99.90
54680;DHT22;40578;53.178;5.846;2024-03-17T04:43:49;4.80;99.90
54680;DHT22;40578;53.178;5.846;2024-03-17T04:46:15;4.80;99.90
54680;DHT22;40578;53.178;5.846;2024-03-17T04:48:41;4.80;99.90
54680;DHT22;40578;53.178;5.846;2024-03-17T04:51:07;4.90;99.90
54680;DHT22;40578;53.178;5.846;2024-03-17T04:53:32;4.90;99.90
54680;DHT22;40578;53.178;5.846;2024-03-17T04:58:25;4.80;99.90
54680;DHT22;40578;53.178;5.846;2024-03-17T05:00:50;4.90;99.90
54680;DHT22;40578;53.178;5.846;2024-03-17T05:03:16;4.90;99.90
54680;DHT22;40578;53.178;5.846;2024-03-17T05:05:41;4.80;99.90
54680;DHT22;40578;53.178;5.846;2024-03-17T05:08:07;4.80;99.90
54680;DHT22;40578;53.178;5.846;2024-03-17T05:10:32;4.80;99.90
54680;DHT22;40578;53.178;5.846;2024-03-17T05:12:58;4.80;99.90
54680;DHT22;40578;53.178;5.846;2024-03-17T05:15:23;4.90;99.90
54680;DHT22;40578;53.178;5.846;2024-03-17T05:17:49;4.80;99.90
54680;DHT22;40578;53.178;5.846;2024-03-17T05:20:15;4.90;99.90
54680;DHT22;40578;53.178;5.846;2024-03-17T05:22:41;4.90;99.90
54680;DHT22;40578;53.178;5.846;2024-03-17T05:25:07;4.80;99.90
54680;DHT22;40578;53.178;5.846;2024-03-17T05:27:33;4.90;99.90
54680;DHT22;40578;53.178;5.846;2024-03-17T05:29:59;4.90;99.90
54680;DHT22;40578;53.178;5.846;2024-03-17T05:32:24;4.90;99.90
54680;DHT22;40578;53.178;5.846;2024-03-17T05:34:51;4.90;99.90
54680;DHT22;40578;53.178;5.846;2024-03-17T05:37:17;4.80;99.90
54680;DHT22;40578;53.178;5.846;2024-03-17T05:39:43;4.80;99.90
54680;DHT22;40578;53.178;5.846;2024-03-17T05:42:08;5.00;99.90
54680;DHT22;40578;53.178;5.846;2024-03-17T05:44:34;4.90;99.90
54680;DHT22;40578;53.178;5.846;2024-03-17T05:47:19;4.80;99.90
54680;DHT22;40578;53.178;5.846;2024-03-17T05:49:45;4.90;99.90
54680;DHT22;40578;53.178;5.846;2024-03-17T05:52:11;4.80;99.90
54680;DHT22;40578;53.178;5.846;2024-03-17T05:54:37;4.90;99.90
54680;DHT22;40578;53.178;5.846;2024-03-17T05:57:03;4.90;99.90
54680;DHT22;40578;53.178;5.846;2024-03-17T05:59:30;4.90;99.90
54680;DHT22;40578;53.178;5.846;2024-03-17T06:01:59;5.00;99.90
54680;DHT22;40578;53.178;5.846;2024-03-17T06:04:24;5.00;99.90
54680;DHT22;40578;53.178;5.846;2024-03-17T06:06:50;5.00;99.90
54680;DHT22;40578;53.178;5.846;2024-03-17T06:09:16;5.20;99.90
54680;DHT22;40578;53.178;5.846;2024-03-17T06:11:46;5.00;99.90
54680;DHT22;40578;53.178;5.846;2024-03-17T06:14:11;4.90;99.90
54680;DHT22;40578;53.178;5.846;2024-03-17T06:16:38;5.00;99.90
54680;DHT22;40578;53.178;5.846;2024-03-17T06:19:04;5.00;99.90
54680;DHT22;40578;53.178;5.846;2024-03-17T06:21:30;5.00;99.90
54680;DHT22;40578;53.178;5.846;2024-03-17T06:23:56;5.50;99.90
54680;DHT22;40578;53.178;5.846;2024-03-17T06:26:22;5.00;99.90
54680;DHT22;40578;53.178;5.846;2024-03-17T06:28:48;5.00;99.90
54680;DHT22;40578;53.178;5.846;2024-03-17T06:31:14;5.00;99.90
54680;DHT22;40578;53.178;5.846;2024-03-17T06:33:41;5.10;99.90
54680;DHT22;40578;53.178;5.846;2024-03-17T06:36:07;5.00;99.90
54680;DHT22;40578;53.178;5.846;2024-03-17T06:38:33;5.10;99.90
54680;DHT22;40578;53.178;5.846;2024-03-17T06:40:59;5.10;99.90
54680;DHT22;40578;53.178;5.846;2024-03-17T06:43:24;5.20;99.90
54680;DHT22;40578;53.178;5.846;2024-03-17T06:45:54;5.20;99.90
54680;DHT22;40578;53.178;5.846;2024-03-17T06:48:20;5.20;99.90
54680;DHT22;40578;53.178;5.846;2024-03-17T06:50:46;5.30;99.90
54680;DHT22;40578;53.178;5.846;2024-03-17T06:53:12;5.20;99.90
54680;DHT22;40578;53.178;5.846;2024-03-17T06:55:38;5.30;99.90
54680;DHT22;40578;53.178;5.846;2024-03-17T06:58:04;5.40;99.90
54680;DHT22;40578;53.178;5.846;2024-03-17T07:00:29;5.30;99.90
54680;DHT22;40578;53.178;5.846;2024-03-17T07:02:55;5.40;99.90
54680;DHT22;40578;53.178;5.846;2024-03-17T07:05:21;5.40;99.90
54680;DHT22;40578;53.178;5.846;2024-03-17T07:07:46;5.40;99.90
54680;DHT22;40578;53.178;5.846;2024-03-17T07:10:12;5.50;99.90
54680;DHT22;40578;53.178;5.846;2024-03-17T07:12:38;5.50;99.90
54680;DHT22;40578;53.178;5.846;2024-03-17T07:15:05;5.50;99.90
54680;DHT22;40578;53.178;5.846;2024-03-17T07:17:31;5.50;99.90
54680;DHT22;40578;53.178;5.846;2024-03-17T07:19:56;5.70;99.90
54680;DHT22;40578;53.178;5.846;2024-03-17T07:22:22;5.70;99.90
54680;DHT22;40578;53.178;5.846;2024-03-17T07:24:48;5.70;99.90
54680;DHT22;40578;53.178;5.846;2024-03-17T07:27:17;5.70;99.90
54680;DHT22;40578;53.178;5.846;2024-03-17T07:29:43;5.80;99.90
54680;DHT22;40578;53.178;5.846;2024-03-17T07:32:08;5.80;99.90
54680;DHT22;40578;53.178;5.846;2024-03-17T07:34:34;5.90;99.90
54680;DHT22;40578;53.178;5.846;2024-03-17T07:37:01;5.90;99.90
54680;DHT22;40578;53.178;5.846;2024-03-17T07:39:29;6.00;99.90
54680;DHT22;40578;53.178;5.846;2024-03-17T07:42:01;6.10;99.90
54680;DHT22;40578;53.178;5.846;2024-03-17T07:44:28;6.10;99.90
54680;DHT22;40578;53.178;5.846;2024-03-17T07:46:58;6.20;99.90
54680;DHT22;40578;53.178;5.846;2024-03-17T07:49:24;6.20;99.90
54680;DHT22;40578;53.178;5.846;2024-03-17T07:51:49;6.30;99.90
54680;DHT22;40578;53.178;5.846;2024-03-17T07:54:15;6.30;99.90
54680;DHT22;40578;53.178;5.846;2024-03-17T07:56:41;6.40;99.90
54680;DHT22;40578;53.178;5.846;2024-03-17T07:59:06;6.40;99.90
54680;DHT22;40578;53.178;5.846;2024-03-17T08:01:37;6.60;99.90
54680;DHT22;40578;53.178;5.846;2024-03-17T08:04:04;6.60;99.90
54680;DHT22;40578;53.178;5.846;2024-03-17T08:06:30;6.70;99.90
54680;DHT22;40578;53.178;5.846;2024-03-17T08:08:55;6.70;99.90
54680;DHT22;40578;53.178;5.846;2024-03-17T08:11:22;6.80;99.90
54680;DHT22;40578;53.178;5.846;2024-03-17T08:13:48;6.70;99.90
54680;DHT22;40578;53.178;5.846;2024-03-17T08:16:14;6.80;99.90
54680;DHT22;40578;53.178;5.846;2024-03-17T08:18:40;6.80;99.90
54680;DHT22;40578;53.178;5.846;2024-03-17T08:21:06;6.90;99.90
54680;DHT22;40578;53.178;5.846;2024-03-17T08:23:32;6.90;99.90
54680;DHT22;40578;53.178;5.846;2024-03-17T08:26:00;7.00;99.90
54680;DHT22;40578;53.178;5.846;2024-03-17T08:28:26;7.00;99.90
54680;DHT22;40578;53.178;5.846;2024-03-17T08:30:58;7.10;99.90
54680;DHT22;40578;53.178;5.846;2024-03-17T08:33:24;7.20;99.90
54680;DHT22;40578;53.178;5.846;2024-03-17T08:35:54;7.20;99.90
54680;DHT22;40578;53.178;5.846;2024-03-17T08:38:21;7.00;99.90
54680;DHT22;40578;53.178;5.846;2024-03-17T08:40:49;7.40;99.90
54680;DHT22;40578;53.178;5.846;2024-03-17T08:43:15;7.40;99.90
54680;DHT22;40578;53.178;5.846;2024-03-17T08:45:40;7.50;99.90
54680;DHT22;40578;53.178;5.846;2024-03-17T08:48:06;7.60;99.90
54680;DHT22;40578;53.178;5.846;2024-03-17T08:50:32;7.60;99.90
54680;DHT22;40578;53.178;5.846;2024-03-17T08:52:59;7.70;99.90
54680;DHT22;40578;53.178;5.846;2024-03-17T08:55:25;7.70;99.90
54680;DHT22;40578;53.178;5.846;2024-03-17T08:57:50;7.80;99.90
54680;DHT22;40578;53.178;5.846;2024-03-17T09:00:16;7.80;99.90
54680;DHT22;40578;53.178;5.846;2024-03-17T09:02:42;7.90;99.90
54680;DHT22;40578;53.178;5.846;2024-03-17T09:05:07;8.00;99.90
54680;DHT22;40578;53.178;5.846;2024-03-17T09:07:33;8.00;99.90
54680;DHT22;40578;53.178;5.846;2024-03-17T09:09:59;8.10;99.90
54680;DHT22;40578;53.178;5.846;2024-03-17T09:12:25;8.10;99.90
54680;DHT22;40578;53.178;5.846;2024-03-17T09:14:51;8.30;99.90
54680;DHT22;40578;53.178;5.846;2024-03-17T09:17:17;8.30;99.90
54680;DHT22;40578;53.178;5.846;2024-03-17T09:19:45;8.40;99.90
54680;DHT22;40578;53.178;5.846;2024-03-17T09:22:10;8.40;99.90
54680;DHT22;40578;53.178;5.846;2024-03-17T09:24:36;8.60;99.90
54680;DHT22;40578;53.178;5.846;2024-03-17T09:27:02;8.60;99.90
54680;DHT22;40578;53.178;5.846;2024-03-17T09:29:29;8.60;99.90
54680;DHT22;40578;53.178;5.846;2024-03-17T09:31:55;8.60;99.90
54680;DHT22;40578;53.178;5.846;2024-03-17T09:34:20;8.70;99.90
54680;DHT22;40578;53.178;5.846;2024-03-17T09:36:46;8.70;99.90
54680;DHT22;40578;53.178;5.846;2024-03-17T09:39:12;8.80;99.90
54680;DHT22;40578;53.178;5.846;2024-03-17T09:41:40;8.80;99.90
54680;DHT22;40578;53.178;5.846;2024-03-17T09:44:11;8.80;99.90
54680;DHT22;40578;53.178;5.846;2024-03-17T09:46:38;8.90;99.90
54680;DHT22;40578;53.178;5.846;2024-03-17T09:49:03;8.90;99.90
54680;DHT22;40578;53.178;5.846;2024-03-17T09:51:29;8.90;99.90
54680;DHT22;40578;53.178;5.846;2024-03-17T09:53:57;9.00;99.90
54680;DHT22;40578;53.178;5.846;2024-03-17T09:56:23;9.00;99.90
54680;DHT22;40578;53.178;5.846;2024-03-17T09:58:50;9.00;99.90
54680;DHT22;40578;53.178;5.846;2024-03-17T10:01:17;9.10;99.90
54680;DHT22;40578;53.178;5.846;2024-03-17T10:03:44;9.00;99.90
54680;DHT22;40578;53.178;5.846;2024-03-17T10:06:14;9.00;99.90
54680;DHT22;40578;53.178;5.846;2024-03-17T10:09:00;9.10;99.90
54680;DHT22;40578;53.178;5.846;2024-03-17T10:11:41;9.00;99.90
54680;DHT22;40578;53.178;5.846;2024-03-17T10:14:08;9.00;99.90
54680;DHT22;40578;53.178;5.846;2024-03-17T10:16:37;9.00;99.90
54680;DHT22;40578;53.178;5.846;2024-03-17T10:19:06;9.00;99.90
54680;DHT22;40578;53.178;5.846;2024-03-17T10:21:45;9.00;99.90
54680;DHT22;40578;53.178;5.846;2024-03-17T10:24:25;9.10;99.90
54680;DHT22;40578;53.178;5.846;2024-03-17T10:26:58;9.20;99.90
54680;DHT22;40578;53.178;5.846;2024-03-17T10:29:35;9.10;99.90
54680;DHT22;40578;53.178;5.846;2024-03-17T10:34:38;9.20;99.90
54680;DHT22;40578;53.178;5.846;2024-03-17T10:39:33;9.30;99.90
54680;DHT22;40578;53.178;5.846;2024-03-17T10:42:04;9.30;99.90
54680;DHT22;40578;53.178;5.846;2024-03-17T10:44:31;9.40;99.90
54680;DHT22;40578;53.178;5.846;2024-03-17T10:46:58;9.30;99.90
54680;DHT22;40578;53.178;5.846;2024-03-17T10:49:31;9.40;99.90
54680;DHT22;40578;53.178;5.846;2024-03-17T10:52:01;9.40;99.90
54680;DHT22;40578;53.178;5.846;2024-03-17T10:54:28;9.50;99.90
54680;DHT22;40578;53.178;5.846;2024-03-17T10:59:41;9.50;99.90
54680;DHT22;40578;53.178;5.846;2024-03-17T11:04:55;9.70;99.90
54680;DHT22;40578;53.178;5.846;2024-03-17T11:07:21;9.80;99.90
54680;DHT22;40578;53.178;5.846;2024-03-17T11:09:49;9.80;99.90
54680;DHT22;40578;53.178;5.846;2024-03-17T11:12:41;10.00;99.90
54680;DHT22;40578;53.178;5.846;2024-03-17T11:20:40;10.40;99.90
54680;DHT22;40578;53.178;5.846;2024-03-17T11:23:06;10.40;99.90
54680;DHT22;40578;53.178;5.846;2024-03-17T11:28:05;10.50;99.90
54680;DHT22;40578;53.178;5.846;2024-03-17T11:39:05;10.70;99.90
54680;DHT22;40578;53.178;5.846;2024-03-17T11:41:48;10.80;99.90
54680;DHT22;40578;53.178;5.846;2024-03-17T11:47:03;11.10;99.90
54680;DHT22;40578;53.178;5.846;2024-03-17T11:49:37;11.10;99.90
54680;DHT22;40578;53.178;5.846;2024-03-17T11:52:14;11.10;99.90
54680;DHT22;40578;53.178;5.846;2024-03-17T11:54:43;11.20;99.90
54680;DHT22;40578;53.178;5.846;2024-03-17T11:57:14;11.30;99.90
54680;DHT22;40578;53.178;5.846;2024-03-17T11:59:45;11.30;99.90
54680;DHT22;40578;53.178;5.846;2024-03-17T12:02:20;11.30;99.90
54680;DHT22;40578;53.178;5.846;2024-03-17T12:04:50;11.20;99.90
54680;DHT22;40578;53.178;5.846;2024-03-17T12:07:21;11.30;99.90
54680;DHT22;40578;53.178;5.846;2024-03-17T12:09:49;11.30;99.90
54680;DHT22;40578;53.178;5.846;2024-03-17T12:12:22;11.30;99.90
54680;DHT22;40578;53.178;5.846;2024-03-17T12:14:49;11.30;99.90
54680;DHT22;40578;53.178;5.846;2024-03-17T12:17:23;11.30;99.90
54680;DHT22;40578;53.178;5.846;2024-03-17T12:19:49;11.40;99.90
54680;DHT22;40578;53.178;5.846;2024-03-17T12:22:17;11.40;99.90
54680;DHT22;40578;53.178;5.846;2024-03-17T12:24:51;11.50;99.90
54680;DHT22;40578;53.178;5.846;2024-03-17T12:27:23;11.40;99.90
54680;DHT22;40578;53.178;5.846;2024-03-17T12:29:51;11.50;99.90
54680;DHT22;40578;53.178;5.846;2024-03-17T12:32:21;11.60;99.90
54680;DHT22;40578;53.178;5.846;2024-03-17T12:34:57;11.50;99.90
54680;DHT22;40578;53.178;5.846;2024-03-17T12:37:25;11.60;99.90
54680;DHT22;40578;53.178;5.846;2024-03-17T12:39:56;11.70;99.90
54680;DHT22;40578;53.178;5.846;2024-03-17T12:42:28;11.80;99.90
54680;DHT22;40578;53.178;5.846;2024-03-17T12:47:21;11.70;99.90
54680;DHT22;40578;53.178;5.846;2024-03-17T12:49:57;11.80;99.90
54680;DHT22;40578;53.178;5.846;2024-03-17T12:52:27;11.80;99.90
54680;DHT22;40578;53.178;5.846;2024-03-17T12:55:01;11.70;99.90
54680;DHT22;40578;53.178;5.846;2024-03-17T12:57:46;11.80;99.90
54680;DHT22;40578;53.178;5.846;2024-03-17T13:00:30;11.80;99.90
54680;DHT22;40578;53.178;5.846;2024-03-17T13:03:00;11.80;99.90
54680;DHT22;40578;53.178;5.846;2024-03-17T13:05:26;11.80;99.90
54680;DHT22;40578;53.178;5.846;2024-03-17T13:07:53;11.80;99.90
54680;DHT22;40578;53.178;5.846;2024-03-17T13:10:20;11.80;99.90
54680;DHT22;40578;53.178;5.846;2024-03-17T13:12:57;11.80;99.90
54680;DHT22;40578;53.178;5.846;2024-03-17T13:15:23;11.80;99.90
54680;DHT22;40578;53.178;5.846;2024-03-17T13:17:49;11.90;99.90
54680;DHT22;40578;53.178;5.846;2024-03-17T13:20:17;11.90;99.90
54680;DHT22;40578;53.178;5.846;2024-03-17T13:22:46;11.90;99.90
54680;DHT22;40578;53.178;5.846;2024-03-17T13:25:15;11.80;99.90
54680;DHT22;40578;53.178;5.846;2024-03-17T13:27:45;11.80;99.90
54680;DHT22;40578;53.178;5.846;2024-03-17T13:30:11;11.80;99.90
54680;DHT22;40578;53.178;5.846;2024-03-17T13:32:37;11.70;99.90
54680;DHT22;40578;53.178;5.846;2024-03-17T13:35:05;11.70;99.90
54680;DHT22;40578;53.178;5.846;2024-03-17T13:37:31;11.70;99.90
54680;DHT22;40578;53.178;5.846;2024-03-17T13:39:56;11.70;99.90
54680;DHT22;40578;53.178;5.846;2024-03-17T13:42:22;11.60;99.90
54680;DHT22;40578;53.178;5.846;2024-03-17T13:44:48;11.60;99.90
54680;DHT22;40578;53.178;5.846;2024-03-17T13:47:16;11.60;99.90
54680;DHT22;40578;53.178;5.846;2024-03-17T13:49:43;11.60;99.90
54680;DHT22;40578;53.178;5.846;2024-03-17T13:52:09;11.70;99.90
54680;DHT22;40578;53.178;5.846;2024-03-17T13:54:35;11.70;99.90
54680;DHT22;40578;53.178;5.846;2024-03-17T13:57:00;11.80;99.90
54680;DHT22;40578;53.178;5.846;2024-03-17T13:59:28;11.80;99.90
54680;DHT22;40578;53.178;5.846;2024-03-17T14:01:55;11.70;99.90
54680;DHT22;40578;53.178;5.846;2024-03-17T14:04:21;11.70;99.90
54680;DHT22;40578;53.178;5.846;2024-03-17T14:06:47;11.70;99.90
54680;DHT22;40578;53.178;5.846;2024-03-17T14:09:16;11.60;99.90
54680;DHT22;40578;53.178;5.846;2024-03-17T14:11:45;11.70;99.90
54680;DHT22;40578;53.178;5.846;2024-03-17T14:14:11;11.60;99.90
54680;DHT22;40578;53.178;5.846;2024-03-17T14:16:37;11.60;99.90
54680;DHT22;40578;53.178;5.846;2024-03-17T14:19:03;11.60;99.90
54680;DHT22;40578;53.178;5.846;2024-03-17T14:21:29;11.60;99.90
54680;DHT22;40578;53.178;5.846;2024-03-17T14:23:55;11.60;99.90
54680;DHT22;40578;53.178;5.846;2024-03-17T14:26:21;11.60;99.90
54680;DHT22;40578;53.178;5.846;2024-03-17T14:28:48;11.60;99.90
54680;DHT22;40578;53.178;5.846;2024-03-17T14:31:16;11.60;99.90
54680;DHT22;40578;53.178;5.846;2024-03-17T14:33:43;11.60;99.90
54680;DHT22;40578;53.178;5.846;2024-03-17T14:36:09;11.70;99.90
54680;DHT22;40578;53.178;5.846;2024-03-17T14:38:34;11.70;99.90
54680;DHT22;40578;53.178;5.846;2024-03-17T14:41:00;11.70;99.90
54680;DHT22;40578;53.178;5.846;2024-03-17T14:43:26;11.80;99.90
54680;DHT22;40578;53.178;5.846;2024-03-17T14:45:51;11.80;99.90
54680;DHT22;40578;53.178;5.846;2024-03-17T14:48:17;11.70;99.90
54680;DHT22;40578;53.178;5.846;2024-03-17T14:50:42;11.80;99.90
54680;DHT22;40578;53.178;5.846;2024-03-17T14:53:08;11.70;99.90
54680;DHT22;40578;53.178;5.846;2024-03-17T14:55:34;11.80;99.90
54680;DHT22;40578;53.178;5.846;2024-03-17T14:58:00;11.80;99.90
54680;DHT22;40578;53.178;5.846;2024-03-17T15:00:28;11.80;99.90
54680;DHT22;40578;53.178;5.846;2024-03-17T15:02:57;11.80;99.90
54680;DHT22;40578;53.178;5.846;2024-03-17T15:05:22;11.80;99.90
54680;DHT22;40578;53.178;5.846;2024-03-17T15:07:50;11.80;99.90
54680;DHT22;40578;53.178;5.846;2024-03-17T15:10:16;11.70;99.90
54680;DHT22;40578;53.178;5.846;2024-03-17T15:12:49;11.80;99.90
54680;DHT22;40578;53.178;5.846;2024-03-17T15:15:15;11.70;99.90
54680;DHT22;40578;53.178;5.846;2024-03-17T15:17:41;11.70;99.90
54680;DHT22;40578;53.178;5.846;2024-03-17T15:20:10;11.60;99.90
54680;DHT22;40578;53.178;5.846;2024-03-17T15:22:46;11.60;99.90
54680;DHT22;40578;53.178;5.846;2024-03-17T15:25:13;11.60;99.90
54680;DHT22;40578;53.178;5.846;2024-03-17T15:27:42;11.60;99.90
54680;DHT22;40578;53.178;5.846;2024-03-17T15:30:17;11.60;99.90
54680;DHT22;40578;53.178;5.846;2024-03-17T15:32:45;11.50;99.90
54680;DHT22;40578;53.178;5.846;2024-03-17T15:35:11;11.50;99.90
54680;DHT22;40578;53.178;5.846;2024-03-17T15:37:39;11.50;99.90
54680;DHT22;40578;53.178;5.846;2024-03-17T15:40:06;11.40;99.90
54680;DHT22;40578;53.178;5.846;2024-03-17T15:42:32;11.50;99.90
54680;DHT22;40578;53.178;5.846;2024-03-17T15:44:58;11.50;99.90
54680;DHT22;40578;53.178;5.846;2024-03-17T15:47:25;11.40;99.90
54680;DHT22;40578;53.178;5.846;2024-03-17T15:49:50;11.40;99.90
54680;DHT22;40578;53.178;5.846;2024-03-17T15:52:16;11.40;99.90
54680;DHT22;40578;53.178;5.846;2024-03-17T15:54:41;11.40;99.90
54680;DHT22;40578;53.178;5.846;2024-03-17T15:57:07;11.30;99.90
54680;DHT22;40578;53.178;5.846;2024-03-17T15:59:33;11.30;99.90
54680;DHT22;40578;53.178;5.846;2024-03-17T16:02:00;11.30;99.90
54680;DHT22;40578;53.178;5.846;2024-03-17T16:04:26;11.30;99.90
54680;DHT22;40578;53.178;5.846;2024-03-17T16:06:53;11.20;99.90
54680;DHT22;40578;53.178;5.846;2024-03-17T16:09:20;11.30;99.90
54680;DHT22;40578;53.178;5.846;2024-03-17T16:11:46;11.20;99.90
54680;DHT22;40578;53.178;5.846;2024-03-17T16:14:13;11.20;99.90
54680;DHT22;40578;53.178;5.846;2024-03-17T16:16:40;11.20;99.90
54680;DHT22;40578;53.178;5.846;2024-03-17T16:19:06;11.10;99.90